Dades meteomassalio
Diari Summary for Gener 28, 2018 Units:  Both    English   Metric
« Previous Day
Next Day »
Diari Semanal Mensual Anual Personalitzat
  Maxima: Minima: Mijana:
Temperatura: TemperatureC °F /  -17.8 °C 0.6 °F /  -17.4 °C 6 °F /  -14.4 °C
Rosada: DewpointC °F /  -17.8 °C -0.7 °F /  -18.2 °C 3.1 °F /  -16.1 °C
Humitat: Humidity % 64 % 82 %
Velocitat del vent: WindSpeedKMH mph /  0 km/h - 1.2 mph /  1.9 km/h
Racha vent: WindSpeedGustKMH mph /  0 km/h - -
Vent:- - West
Pressio: PressurehPa in /  0 hPa 1037.1 in /  35116.2 hPa -
Pluja: 0.5 in /  12.7 mm    
Historical Graphs
 
 
Tabular Data for Gener 28, 2018
Time Temperature Dew Point Pressure Wind Wind Speed Wind Gust Humidity Rainfall Rate (Hourly) solar Conditions
TemperatureC °F /  -17.8 °C DewpointC °F /  -17.8 °C PressurehPa in /  0 hPa Calm     Humidity % HourlyPrecipMM in /  0 mm SolarRadiationWatts/m^2 W/m2 Conditions
00:05 6.1 °F /  -14.4 °C 2.9 °F /  -16.2 °C 1037.5 in /  35129.8 hPa Calm     80 % 0.0 in /  0 mm 0.0 W/m2 CLR
00:10 5.6 °F /  -14.7 °C 2.4 °F /  -16.4 °C 1037.5 in /  35129.8 hPa Calm     80 % 0.0 in /  0 mm 0.0 W/m2 CLR
00:15 5.6 °F /  -14.7 °C 2.4 °F /  -16.4 °C 1037.5 in /  35129.8 hPa Calm     80 % 0.0 in /  0 mm 0.0 W/m2 CLR
00:20 5.6 °F /  -14.7 °C 2.4 °F /  -16.4 °C 1037.5 in /  35129.8 hPa Calm     80 % 0.0 in /  0 mm 0.0 W/m2 CLR
00:25 5.6 °F /  -14.7 °C 2.4 °F /  -16.4 °C 1037.1 in /  35116.2 hPa Calm     80 % 0.0 in /  0 mm 0.0 W/m2 CLR
00:30 5.6 °F /  -14.7 °C 2.4 °F /  -16.4 °C 1037.1 in /  35116.2 hPa Calm     80 % 0.0 in /  0 mm 0.0 W/m2 CLR
00:35 5.6 °F /  -14.7 °C 2.4 °F /  -16.4 °C 1037.1 in /  35116.2 hPa NW 3.7 mph /  6 km/h   80 % 0.0 in /  0 mm 0.0 W/m2 CLR
00:40 5.6 °F /  -14.7 °C 2.4 °F /  -16.4 °C 1037.1 in /  35116.2 hPa Calm     80 % 0.0 in /  0 mm 0.0 W/m2 CLR
00:45 5.6 °F /  -14.7 °C 2.4 °F /  -16.4 °C 1037.5 in /  35129.8 hPa Calm     80 % 0.0 in /  0 mm 0.0 W/m2 CLR
00:50 5.6 °F /  -14.7 °C 2.6 °F /  -16.3 °C 1037.5 in /  35129.8 hPa Calm     81 % 0.0 in /  0 mm 0.0 W/m2 CLR
00:55 5.6 °F /  -14.7 °C 2.6 °F /  -16.3 °C 1037.5 in /  35129.8 hPa Calm     81 % 0.0 in /  0 mm 0.0 W/m2 CLR
01:00 6.1 °F /  -14.4 °C 3.1 °F /  -16.1 °C 1037.5 in /  35129.8 hPa Calm     81 % 0.0 in /  0 mm 0.0 W/m2 CLR
01:05 6.1 °F /  -14.4 °C 3.3 °F /  -15.9 °C 1037.5 in /  35129.8 hPa Calm     82 % 0.0 in /  0 mm 0.0 W/m2 CLR
01:10 6.1 °F /  -14.4 °C 3.3 °F /  -15.9 °C 1037.5 in /  35129.8 hPa Calm     82 % 0.0 in /  0 mm 0.0 W/m2 CLR
01:15 6.1 °F /  -14.4 °C 3.3 °F /  -15.9 °C 1037.5 in /  35129.8 hPa Calm     82 % 0.0 in /  0 mm 0.0 W/m2 CLR
01:20 5.6 °F /  -14.7 °C 2.7 °F /  -16.3 °C 1037.5 in /  35129.8 hPa Calm     82 % 0.3 in /  7.62 mm 0.0 W/m2 RA
01:25 5.6 °F /  -14.7 °C 2.9 °F /  -16.2 °C 1037.5 in /  35129.8 hPa Calm     83 % 0.3 in /  7.62 mm 0.0 W/m2 CLR
01:30 5.6 °F /  -14.7 °C 2.9 °F /  -16.2 °C 1037.8 in /  35139.9 hPa Calm     83 % 0.3 in /  7.62 mm 0.0 W/m2 CLR
01:35 5.6 °F /  -14.7 °C 3.1 °F /  -16.1 °C 1037.8 in /  35139.9 hPa Calm     84 % 0.3 in /  7.62 mm 0.0 W/m2 CLR
01:40 5.6 °F /  -14.7 °C 2.9 °F /  -16.2 °C 1037.8 in /  35139.9 hPa NW 3.7 mph /  6 km/h 3.7 mph /  6 km/h 83 % 0.3 in /  7.62 mm 0.0 W/m2 CLR
01:45 5.6 °F /  -14.7 °C 3.1 °F /  -16.1 °C 1037.8 in /  35139.9 hPa WNW 3.7 mph /  6 km/h 3.7 mph /  6 km/h 84 % 0.3 in /  7.62 mm 0.0 W/m2 CLR
01:50 5.6 °F /  -14.7 °C 3.1 °F /  -16.1 °C 1037.8 in /  35139.9 hPa Calm     84 % 0.3 in /  7.62 mm 0.0 W/m2 CLR
01:55 5.6 °F /  -14.7 °C 3.1 °F /  -16.1 °C 1037.8 in /  35139.9 hPa Calm     84 % 0.3 in /  7.62 mm 0.0 W/m2 CLR
02:00 5.0 °F /  -15 °C 2.5 °F /  -16.4 °C 1037.8 in /  35139.9 hPa Calm     84 % 0.3 in /  7.62 mm 0.0 W/m2 CLR
02:05 5.0 °F /  -15 °C 2.5 °F /  -16.4 °C 1037.8 in /  35139.9 hPa Calm     84 % 0.3 in /  7.62 mm 0.0 W/m2 CLR
02:10 5.0 °F /  -15 °C 2.7 °F /  -16.3 °C 1037.8 in /  35139.9 hPa Calm     85 % 0.3 in /  7.62 mm 0.0 W/m2 CLR
02:15 5.0 °F /  -15 °C 2.7 °F /  -16.3 °C 1037.8 in /  35139.9 hPa Calm     85 % 0.3 in /  7.62 mm 0.0 W/m2 CLR
02:20 5.0 °F /  -15 °C 2.8 °F /  -16.2 °C 1037.8 in /  35139.9 hPa Calm     86 % 0.3 in /  7.62 mm 0.0 W/m2 RA
02:25 5.0 °F /  -15 °C 3.0 °F /  -16.1 °C 1038.1 in /  35150.1 hPa Calm     87 % 0.3 in /  7.62 mm 0.0 W/m2 CLR
02:30 5.0 °F /  -15 °C 3.0 °F /  -16.1 °C 1038.1 in /  35150.1 hPa Calm     87 % 0.3 in /  7.62 mm 0.0 W/m2 CLR
02:35 5.0 °F /  -15 °C 3.0 °F /  -16.1 °C 1037.8 in /  35139.9 hPa Calm     87 % 0.3 in /  7.62 mm 0.0 W/m2 CLR
02:40 5.0 °F /  -15 °C 3.0 °F /  -16.1 °C 1037.8 in /  35139.9 hPa WNW 5.6 mph /  9 km/h 5.6 mph /  9 km/h 87 % 0.3 in /  7.62 mm 0.0 W/m2 CLR
02:45 5.0 °F /  -15 °C 3.0 °F /  -16.1 °C 1037.8 in /  35139.9 hPa WNW 5.6 mph /  9 km/h 5.6 mph /  9 km/h 87 % 0.3 in /  7.62 mm 0.0 W/m2 CLR
02:50 5.0 °F /  -15 °C 3.0 °F /  -16.1 °C 1037.8 in /  35139.9 hPa WNW 3.7 mph /  6 km/h 3.7 mph /  6 km/h 87 % 0.3 in /  7.62 mm 0.0 W/m2 CLR
02:55 5.0 °F /  -15 °C 3.0 °F /  -16.1 °C 1037.8 in /  35139.9 hPa WNW 7.4 mph /  11.9 km/h 7.4 mph /  11.9 km/h 87 % 0.3 in /  7.62 mm 0.0 W/m2 CLR
03:00 5.0 °F /  -15 °C 3.0 °F /  -16.1 °C 1037.8 in /  35139.9 hPa WNW 7.4 mph /  11.9 km/h 7.4 mph /  11.9 km/h 87 % 0.3 in /  7.62 mm 0.0 W/m2 CLR
03:05 5.0 °F /  -15 °C 3.2 °F /  -16 °C 1037.8 in /  35139.9 hPa WNW 1.6 mph /  2.6 km/h 1.6 mph /  2.6 km/h 88 % 0.3 in /  7.62 mm 0.0 W/m2 CLR
03:10 5.0 °F /  -15 °C 3.2 °F /  -16 °C 1037.8 in /  35139.9 hPa Calm     88 % 0.3 in /  7.62 mm 0.0 W/m2 CLR
03:15 5.0 °F /  -15 °C 3.2 °F /  -16 °C 1037.8 in /  35139.9 hPa Calm     88 % 0.3 in /  7.62 mm 0.0 W/m2 CLR
03:20 5.0 °F /  -15 °C 3.2 °F /  -16 °C 1037.8 in /  35139.9 hPa NW 6.4 mph /  10.3 km/h 6.4 mph /  10.3 km/h 88 % 0.0 in /  0 mm 0.0 W/m2 CLR
03:25 5.0 °F /  -15 °C 3.2 °F /  -16 °C 1037.8 in /  35139.9 hPa NW 7.4 mph /  11.9 km/h 7.4 mph /  11.9 km/h 88 % 0.0 in /  0 mm 0.0 W/m2 CLR
03:30 5.0 °F /  -15 °C 3.0 °F /  -16.1 °C 1037.8 in /  35139.9 hPa Calm     87 % 0.0 in /  0 mm 0.0 W/m2 CLR
03:35 5.0 °F /  -15 °C 3.0 °F /  -16.1 °C 1038.1 in /  35150.1 hPa Calm     87 % 0.0 in /  0 mm 0.0 W/m2 CLR
03:40 5.0 °F /  -15 °C 3.2 °F /  -16 °C 1038.1 in /  35150.1 hPa Calm     88 % 0.0 in /  0 mm 0.0 W/m2 CLR
03:45 5.0 °F /  -15 °C 3.2 °F /  -16 °C 1037.8 in /  35139.9 hPa Calm     88 % 0.0 in /  0 mm 0.0 W/m2 CLR
03:50 5.0 °F /  -15 °C 3.2 °F /  -16 °C 1037.8 in /  35139.9 hPa Calm     88 % 0.0 in /  0 mm 0.0 W/m2 CLR
03:55 5.0 °F /  -15 °C 3.2 °F /  -16 °C 1038.1 in /  35150.1 hPa Calm     88 % 0.0 in /  0 mm 0.0 W/m2 CLR
04:00 5.0 °F /  -15 °C 3.2 °F /  -16 °C 1037.8 in /  35139.9 hPa Calm     88 % 0.0 in /  0 mm 0.0 W/m2 CLR
04:05 5.0 °F /  -15 °C 3.2 °F /  -16 °C 1037.8 in /  35139.9 hPa Calm     88 % 0.0 in /  0 mm 0.0 W/m2 CLR
04:10 5.0 °F /  -15 °C 3.2 °F /  -16 °C 1037.8 in /  35139.9 hPa Calm     88 % 0.0 in /  0 mm 0.0 W/m2 CLR
04:15 5.0 °F /  -15 °C 3.2 °F /  -16 °C 1037.8 in /  35139.9 hPa Calm     88 % 0.0 in /  0 mm 0.0 W/m2 CLR
04:20 5.0 °F /  -15 °C 3.2 °F /  -16 °C 1037.8 in /  35139.9 hPa Calm     88 % 0.0 in /  0 mm 0.0 W/m2 CLR
04:25 5.0 °F /  -15 °C 3.2 °F /  -16 °C 1037.8 in /  35139.9 hPa Calm     88 % 0.0 in /  0 mm 0.0 W/m2 CLR
04:30 5.0 °F /  -15 °C 3.2 °F /  -16 °C 1037.8 in /  35139.9 hPa Calm     88 % 0.0 in /  0 mm 0.0 W/m2 CLR
04:35 5.0 °F /  -15 °C 3.2 °F /  -16 °C 1037.8 in /  35139.9 hPa Calm     88 % 0.0 in /  0 mm 0.0 W/m2 CLR
04:40 5.0 °F /  -15 °C 3.2 °F /  -16 °C 1037.8 in /  35139.9 hPa West 3.7 mph /  6 km/h   88 % 0.0 in /  0 mm 0.0 W/m2 CLR
04:45 5.0 °F /  -15 °C 3.2 °F /  -16 °C 1037.8 in /  35139.9 hPa West 5.6 mph /  9 km/h   88 % 0.0 in /  0 mm 0.0 W/m2 CLR
04:50 5.0 °F /  -15 °C 3.2 °F /  -16 °C 1037.8 in /  35139.9 hPa Calm     88 % 0.0 in /  0 mm 0.0 W/m2 CLR
04:55 5.0 °F /  -15 °C 3.2 °F /  -16 °C 1037.8 in /  35139.9 hPa Calm     88 % 0.0 in /  0 mm 0.0 W/m2 CLR
05:00 5.0 °F /  -15 °C 3.2 °F /  -16 °C 1038.1 in /  35150.1 hPa Calm     88 % 0.0 in /  0 mm 0.0 W/m2 CLR
05:05 5.0 °F /  -15 °C 3.2 °F /  -16 °C 1038.1 in /  35150.1 hPa Calm     88 % 0.0 in /  0 mm 0.0 W/m2 CLR
05:10 4.4 °F /  -15.3 °C 2.6 °F /  -16.3 °C 1038.1 in /  35150.1 hPa Calm     88 % 0.0 in /  0 mm 0.0 W/m2 CLR
05:15 4.4 °F /  -15.3 °C 2.6 °F /  -16.3 °C 1038.1 in /  35150.1 hPa Calm     88 % 0.0 in /  0 mm 0.0 W/m2 CLR
05:20 4.4 °F /  -15.3 °C 2.6 °F /  -16.3 °C 1038.1 in /  35150.1 hPa Calm     88 % 0.0 in /  0 mm 0.0 W/m2 CLR
05:25 4.4 °F /  -15.3 °C 2.6 °F /  -16.3 °C 1038.1 in /  35150.1 hPa Calm     88 % 0.0 in /  0 mm 0.0 W/m2 CLR
05:30 5.0 °F /  -15 °C 3.2 °F /  -16 °C 1038.1 in /  35150.1 hPa Calm     88 % 0.0 in /  0 mm 0.0 W/m2 CLR
05:35 5.0 °F /  -15 °C 3.0 °F /  -16.1 °C 1038.1 in /  35150.1 hPa Calm     87 % 0.0 in /  0 mm 0.0 W/m2 CLR
05:40 5.0 °F /  -15 °C 3.0 °F /  -16.1 °C 1038.1 in /  35150.1 hPa Calm     87 % 0.0 in /  0 mm 0.0 W/m2 CLR
05:45 5.0 °F /  -15 °C 3.0 °F /  -16.1 °C 1038.1 in /  35150.1 hPa Calm     87 % 0.0 in /  0 mm 0.0 W/m2 CLR
05:50 5.0 °F /  -15 °C 3.0 °F /  -16.1 °C 1038.1 in /  35150.1 hPa Calm     87 % 0.0 in /  0 mm 0.0 W/m2 CLR
05:55 5.0 °F /  -15 °C 3.0 °F /  -16.1 °C 1038.5 in /  35163.6 hPa Calm     87 % 0.0 in /  0 mm 0.0 W/m2 CLR
06:01 5.0 °F /  -15 °C 3.0 °F /  -16.1 °C 1038.1 in /  35150.1 hPa Calm     87 % 0.0 in /  0 mm 0.0 W/m2 CLR
06:06 5.0 °F /  -15 °C 3.0 °F /  -16.1 °C 1038.1 in /  35150.1 hPa Calm     87 % 0.0 in /  0 mm 0.0 W/m2 CLR
06:11 5.0 °F /  -15 °C 3.0 °F /  -16.1 °C 1038.1 in /  35150.1 hPa Calm     87 % 0.0 in /  0 mm 0.0 W/m2 CLR
06:16 5.0 °F /  -15 °C 3.0 °F /  -16.1 °C 1038.1 in /  35150.1 hPa Calm     87 % 0.0 in /  0 mm 0.0 W/m2 CLR
06:21 5.0 °F /  -15 °C 3.0 °F /  -16.1 °C 1038.5 in /  35163.6 hPa Calm     87 % 0.0 in /  0 mm 0.0 W/m2 CLR
06:26 5.0 °F /  -15 °C 2.8 °F /  -16.2 °C 1038.5 in /  35163.6 hPa Calm     86 % 0.0 in /  0 mm 0.0 W/m2 CLR
06:31 5.0 °F /  -15 °C 2.8 °F /  -16.2 °C 1038.5 in /  35163.6 hPa Calm     86 % 0.0 in /  0 mm 0.0 W/m2 CLR
06:36 5.0 °F /  -15 °C 2.8 °F /  -16.2 °C 1038.5 in /  35163.6 hPa Calm     86 % 0.0 in /  0 mm 0.0 W/m2 CLR
06:41 5.0 °F /  -15 °C 2.8 °F /  -16.2 °C 1038.8 in /  35173.8 hPa Calm     86 % 0.0 in /  0 mm 0.0 W/m2 CLR
06:46 5.0 °F /  -15 °C 2.8 °F /  -16.2 °C 1038.8 in /  35173.8 hPa Calm     86 % 0.0 in /  0 mm 0.0 W/m2 CLR
06:51 5.0 °F /  -15 °C 2.8 °F /  -16.2 °C 1038.8 in /  35173.8 hPa Calm     86 % 0.0 in /  0 mm 0.0 W/m2 CLR
06:56 5.0 °F /  -15 °C 2.8 °F /  -16.2 °C 1038.8 in /  35173.8 hPa Calm     86 % 0.0 in /  0 mm 0.0 W/m2 CLR
07:01 5.0 °F /  -15 °C 2.8 °F /  -16.2 °C 1038.8 in /  35173.8 hPa Calm     86 % 0.0 in /  0 mm 0.0 W/m2 CLR
07:06 5.0 °F /  -15 °C 2.8 °F /  -16.2 °C 1038.8 in /  35173.8 hPa Calm     86 % 0.0 in /  0 mm 0.0 W/m2 CLR
07:11 5.0 °F /  -15 °C 2.8 °F /  -16.2 °C 1038.8 in /  35173.8 hPa Calm     86 % 0.0 in /  0 mm 0.0 W/m2 CLR
07:16 5.0 °F /  -15 °C 2.8 °F /  -16.2 °C 1038.8 in /  35173.8 hPa Calm     86 % 0.0 in /  0 mm 0.0 W/m2 CLR
07:21 5.0 °F /  -15 °C 2.8 °F /  -16.2 °C 1039.2 in /  35187.3 hPa Calm     86 % 0.0 in /  0 mm 0.0 W/m2 CLR
07:26 5.0 °F /  -15 °C 2.8 °F /  -16.2 °C 1039.2 in /  35187.3 hPa Calm     86 % 0.0 in /  0 mm 0.0 W/m2 CLR
07:31 5.0 °F /  -15 °C 2.8 °F /  -16.2 °C 1039.2 in /  35187.3 hPa Calm     86 % 0.0 in /  0 mm 0.0 W/m2 CLR
07:36 5.0 °F /  -15 °C 2.8 °F /  -16.2 °C 1039.5 in /  35197.5 hPa Calm     86 % 0.0 in /  0 mm 0.0 W/m2 CLR
07:41 5.0 °F /  -15 °C 3.0 °F /  -16.1 °C 1039.5 in /  35197.5 hPa Calm     87 % 0.0 in /  0 mm 0.0 W/m2 CLR
07:46 5.0 °F /  -15 °C 3.0 °F /  -16.1 °C 1039.2 in /  35187.3 hPa Calm     87 % 0.0 in /  0 mm 0.0 W/m2 CLR
07:51 5.0 °F /  -15 °C 3.0 °F /  -16.1 °C 1039.5 in /  35197.5 hPa Calm     87 % 0.0 in /  0 mm 0.0 W/m2 CLR
07:56 5.0 °F /  -15 °C 2.8 °F /  -16.2 °C 1039.5 in /  35197.5 hPa Calm     86 % 0.0 in /  0 mm 0.0 W/m2 CLR
08:01 5.0 °F /  -15 °C 2.8 °F /  -16.2 °C 1039.5 in /  35197.5 hPa Calm     86 % 0.0 in /  0 mm 0.0 W/m2 CLR
08:06 5.0 °F /  -15 °C 2.8 °F /  -16.2 °C 1039.5 in /  35197.5 hPa Calm     86 % 0.0 in /  0 mm 0.0 W/m2 OVC
08:11 5.0 °F /  -15 °C 2.8 °F /  -16.2 °C 1039.5 in /  35197.5 hPa Calm     86 % 0.0 in /  0 mm 0.0 W/m2 OVC
08:16 5.0 °F /  -15 °C 2.8 °F /  -16.2 °C 1039.8 in /  35207.6 hPa Calm     86 % 0.0 in /  0 mm 0.0 W/m2 OVC
08:21 5.0 °F /  -15 °C 3.0 °F /  -16.1 °C 1039.8 in /  35207.6 hPa Calm     87 % 0.0 in /  0 mm 0.0 W/m2 OVC
08:26 5.0 °F /  -15 °C 3.0 °F /  -16.1 °C 1039.8 in /  35207.6 hPa Calm     87 % 0.0 in /  0 mm 0.0 W/m2 OVC
08:31 5.0 °F /  -15 °C 3.0 °F /  -16.1 °C 1039.8 in /  35207.6 hPa Calm     87 % 0.0 in /  0 mm 7.0 W/m2 BKN
08:36 5.0 °F /  -15 °C 3.0 °F /  -16.1 °C 1039.8 in /  35207.6 hPa Calm     87 % 0.0 in /  0 mm 11.0 W/m2 BKN
08:41 5.0 °F /  -15 °C 3.0 °F /  -16.1 °C 1040.2 in /  35221.2 hPa Calm     87 % 0.0 in /  0 mm 11.0 W/m2 BKN
08:46 5.0 °F /  -15 °C 3.2 °F /  -16 °C 1040.2 in /  35221.2 hPa Calm     88 % 0.0 in /  0 mm 11.0 W/m2 BKN
08:51 5.0 °F /  -15 °C 3.2 °F /  -16 °C 1040.2 in /  35221.2 hPa Calm     88 % 0.0 in /  0 mm 16.0 W/m2 BKN
08:56 5.0 °F /  -15 °C 3.2 °F /  -16 °C 1040.5 in /  35231.3 hPa Calm     88 % 0.0 in /  0 mm 18.0 W/m2 BKN
09:01 5.0 °F /  -15 °C 3.2 °F /  -16 °C 1040.5 in /  35231.3 hPa Calm     88 % 0.0 in /  0 mm 18.0 W/m2 BKN
09:06 5.0 °F /  -15 °C 3.2 °F /  -16 °C 1040.5 in /  35231.3 hPa Calm     88 % 0.0 in /  0 mm 21.0 W/m2 BKN
09:11 5.0 °F /  -15 °C 3.2 °F /  -16 °C 1040.5 in /  35231.3 hPa Calm     88 % 0.0 in /  0 mm 28.0 W/m2 BKN
09:16 5.6 °F /  -14.7 °C 3.7 °F /  -15.7 °C 1040.5 in /  35231.3 hPa Calm     88 % 0.0 in /  0 mm 32.0 W/m2 BKN
09:21 5.6 °F /  -14.7 °C 3.7 °F /  -15.7 °C 1040.9 in /  35244.9 hPa Calm     88 % 0.0 in /  0 mm 30.0 W/m2 BKN
09:26 5.6 °F /  -14.7 °C 3.7 °F /  -15.7 °C 1040.9 in /  35244.9 hPa Calm     88 % 0.0 in /  0 mm 35.0 W/m2 BKN
09:31 5.6 °F /  -14.7 °C 3.7 °F /  -15.7 °C 1040.9 in /  35244.9 hPa Calm     88 % 0.0 in /  0 mm 39.0 W/m2 BKN
09:36 5.6 °F /  -14.7 °C 3.7 °F /  -15.7 °C 1040.9 in /  35244.9 hPa Calm     88 % 0.0 in /  0 mm 39.0 W/m2 BKN
09:41 5.6 °F /  -14.7 °C 3.7 °F /  -15.7 °C 1040.9 in /  35244.9 hPa Calm     88 % 0.0 in /  0 mm 58.0 W/m2 BKN
09:46 5.6 °F /  -14.7 °C 3.7 °F /  -15.7 °C 1040.9 in /  35244.9 hPa Calm     88 % 0.0 in /  0 mm 72.0 W/m2 SCT
09:51 5.6 °F /  -14.7 °C 3.7 °F /  -15.7 °C 1041.2 in /  35255 hPa Calm     88 % 0.0 in /  0 mm 51.0 W/m2 SCT
09:56 6.1 °F /  -14.4 °C 4.1 °F /  -15.5 °C 1040.9 in /  35244.9 hPa Calm     87 % 0.0 in /  0 mm 62.0 W/m2 SCT
10:01 6.1 °F /  -14.4 °C 4.1 °F /  -15.5 °C 1041.2 in /  35255 hPa Calm     87 % 0.0 in /  0 mm 62.0 W/m2 SCT
10:02 6.1 °F /  -14.4 °C 4.1 °F /  -15.5 °C 1041.2 in /  35255 hPa Calm     87 % 0.0 in /  0 mm 62.0 W/m2 SCT
10:07 6.1 °F /  -14.4 °C 4.1 °F /  -15.5 °C 1041.2 in /  35255 hPa Calm     87 % 0.0 in /  0 mm 56.0 W/m2 FEW
10:12 6.1 °F /  -14.4 °C 3.9 °F /  -15.6 °C 1041.2 in /  35255 hPa Calm     86 % 0.0 in /  0 mm 77.0 W/m2 FEW
10:17 6.1 °F /  -14.4 °C 3.9 °F /  -15.6 °C 1041.2 in /  35255 hPa Calm     86 % 0.0 in /  0 mm 60.0 W/m2 FEW
10:22 6.1 °F /  -14.4 °C 3.8 °F /  -15.7 °C 1041.2 in /  35255 hPa Calm     85 % 0.0 in /  0 mm 69.0 W/m2 SCT
10:27 6.7 °F /  -14.1 °C 4.3 °F /  -15.4 °C 1041.2 in /  35255 hPa Calm     85 % 0.0 in /  0 mm 130.0 W/m2 FEW
10:32 6.7 °F /  -14.1 °C 4.2 °F /  -15.4 °C 1041.2 in /  35255 hPa Calm     84 % 0.0 in /  0 mm 109.0 W/m2 CLR
10:37 6.7 °F /  -14.1 °C 4.2 °F /  -15.4 °C 1041.2 in /  35255 hPa Calm     84 % 0.0 in /  0 mm 90.0 W/m2 CLR
10:42 6.7 °F /  -14.1 °C 4.0 °F /  -15.6 °C 1041.2 in /  35255 hPa Calm     83 % 0.0 in /  0 mm 79.0 W/m2 FEW
10:47 6.7 °F /  -14.1 °C 4.2 °F /  -15.4 °C 1041.2 in /  35255 hPa Calm     84 % 0.0 in /  0 mm 137.0 W/m2 CLR
10:52 7.2 °F /  -13.8 °C 4.7 °F /  -15.2 °C 1041.5 in /  35265.2 hPa Calm     84 % 0.0 in /  0 mm 176.0 W/m2 CLR
10:57 7.2 °F /  -13.8 °C 4.3 °F /  -15.4 °C 1041.5 in /  35265.2 hPa Calm     82 % 0.0 in /  0 mm 125.0 W/m2 CLR
11:02 7.2 °F /  -13.8 °C 4.0 °F /  -15.6 °C 1041.5 in /  35265.2 hPa Calm     80 % 0.0 in /  0 mm 128.0 W/m2 CLR
11:07 7.2 °F /  -13.8 °C 3.8 °F /  -15.7 °C 1041.9 in /  35278.7 hPa Calm     79 % 0.0 in /  0 mm 160.0 W/m2 CLR
11:12 7.2 °F /  -13.8 °C 3.8 °F /  -15.7 °C 1041.9 in /  35278.7 hPa Calm     79 % 0.0 in /  0 mm 158.0 W/m2 CLR
11:17 7.8 °F /  -13.4 °C 4.0 °F /  -15.6 °C 1041.9 in /  35278.7 hPa Calm     77 % 0.0 in /  0 mm 135.0 W/m2 CLR
11:22 7.8 °F /  -13.4 °C 4.2 °F /  -15.4 °C 1041.9 in /  35278.7 hPa Calm     78 % 0.0 in /  0 mm 153.0 W/m2 CLR
11:27 7.8 °F /  -13.4 °C 4.2 °F /  -15.4 °C 1041.9 in /  35278.7 hPa NNW 5.6 mph /  9 km/h 5.6 mph /  9 km/h 78 % 0.0 in /  0 mm 234.0 W/m2 CLR
11:32 8.3 °F /  -13.2 °C 4.6 °F /  -15.2 °C 1041.9 in /  35278.7 hPa NNW 3.7 mph /  6 km/h 3.7 mph /  6 km/h 77 % 0.0 in /  0 mm 144.0 W/m2 CLR
11:37 8.3 °F /  -13.2 °C 4.6 °F /  -15.2 °C 1041.9 in /  35278.7 hPa NW 3.7 mph /  6 km/h 3.7 mph /  6 km/h 77 % 0.0 in /  0 mm 221.0 W/m2 CLR
11:42 8.3 °F /  -13.2 °C 4.3 °F /  -15.4 °C 1041.9 in /  35278.7 hPa Calm     76 % 0.0 in /  0 mm 225.0 W/m2 CLR
11:47 8.3 °F /  -13.2 °C 4.3 °F /  -15.4 °C 1041.9 in /  35278.7 hPa NW 5.6 mph /  9 km/h 5.6 mph /  9 km/h 76 % 0.0 in /  0 mm 153.0 W/m2 CLR
11:52 8.3 °F /  -13.2 °C 4.3 °F /  -15.4 °C 1041.9 in /  35278.7 hPa NW 5.6 mph /  9 km/h 5.6 mph /  9 km/h 76 % 0.0 in /  0 mm 160.0 W/m2 CLR
11:57 8.3 °F /  -13.2 °C 3.9 °F /  -15.6 °C 1041.9 in /  35278.7 hPa North 3.7 mph /  6 km/h 3.7 mph /  6 km/h 74 % 0.0 in /  0 mm 181.0 W/m2 CLR
12:02 8.3 °F /  -13.2 °C 4.3 °F /  -15.4 °C 1041.9 in /  35278.7 hPa North 1.9 mph /  3.1 km/h 1.9 mph /  3.1 km/h 76 % 0.0 in /  0 mm 160.0 W/m2 CLR
12:07 8.3 °F /  -13.2 °C 4.3 °F /  -15.4 °C 1041.9 in /  35278.7 hPa NNW 5.6 mph /  9 km/h 5.6 mph /  9 km/h 76 % 0.0 in /  0 mm 151.0 W/m2 CLR
12:12 8.3 °F /  -13.2 °C 4.3 °F /  -15.4 °C 1041.9 in /  35278.7 hPa Calm     76 % 0.0 in /  0 mm 155.0 W/m2 CLR
12:17 8.3 °F /  -13.2 °C 4.3 °F /  -15.4 °C 1041.9 in /  35278.7 hPa NNW 3.7 mph /  6 km/h 3.7 mph /  6 km/h 76 % 0.0 in /  0 mm 156.0 W/m2 CLR
12:22 8.3 °F /  -13.2 °C 4.2 °F /  -15.4 °C 1041.9 in /  35278.7 hPa Calm     75 % 0.0 in /  0 mm 193.0 W/m2 CLR
12:27 8.3 °F /  -13.2 °C 4.2 °F /  -15.4 °C 1041.9 in /  35278.7 hPa NNW 5.6 mph /  9 km/h 5.6 mph /  9 km/h 75 % 0.0 in /  0 mm 221.0 W/m2 CLR
12:32 8.9 °F /  -12.8 °C 4.9 °F /  -15.1 °C 1041.9 in /  35278.7 hPa NNW 4.8 mph /  7.7 km/h 4.8 mph /  7.7 km/h 76 % 0.0 in /  0 mm 684.0 W/m2 CLR
12:37 8.9 °F /  -12.8 °C 4.5 °F /  -15.3 °C 1041.5 in /  35265.2 hPa NNW 5.6 mph /  9 km/h 5.6 mph /  9 km/h 74 % 0.0 in /  0 mm 299.0 W/m2 CLR
12:42 8.9 °F /  -12.8 °C 4.7 °F /  -15.2 °C 1041.5 in /  35265.2 hPa NW 3.7 mph /  6 km/h 3.7 mph /  6 km/h 75 % 0.0 in /  0 mm 489.0 W/m2 CLR
12:47 8.9 °F /  -12.8 °C 4.7 °F /  -15.2 °C 1041.5 in /  35265.2 hPa WNW 5.6 mph /  9 km/h 5.6 mph /  9 km/h 75 % 0.0 in /  0 mm 236.0 W/m2 CLR
12:52 8.9 °F /  -12.8 °C 4.3 °F /  -15.4 °C 1041.5 in /  35265.2 hPa WNW 3.7 mph /  6 km/h   73 % 0.0 in /  0 mm 206.0 W/m2 CLR
12:57 8.9 °F /  -12.8 °C 4.3 °F /  -15.4 °C 1041.5 in /  35265.2 hPa West 7.4 mph /  11.9 km/h 7.4 mph /  11.9 km/h 73 % 0.0 in /  0 mm 262.0 W/m2 CLR
13:02 8.9 °F /  -12.8 °C 4.3 °F /  -15.4 °C 1041.5 in /  35265.2 hPa West 9.3 mph /  15 km/h 9.3 mph /  15 km/h 73 % 0.0 in /  0 mm 294.0 W/m2 CLR
13:07 9.4 °F /  -12.6 °C 4.8 °F /  -15.1 °C 1041.5 in /  35265.2 hPa WNW 5.6 mph /  9 km/h 5.6 mph /  9 km/h 73 % 0.0 in /  0 mm 309.0 W/m2 CLR
13:12 9.4 °F /  -12.6 °C 4.7 °F /  -15.2 °C 1041.5 in /  35265.2 hPa WNW 5.6 mph /  9 km/h 5.6 mph /  9 km/h 72 % 0.0 in /  0 mm 214.0 W/m2 CLR
13:17 9.4 °F /  -12.6 °C 4.8 °F /  -15.1 °C 1041.2 in /  35255 hPa NW 5.6 mph /  9 km/h 5.6 mph /  9 km/h 73 % 0.0 in /  0 mm 265.0 W/m2 CLR
13:22 9.4 °F /  -12.6 °C 5.1 °F /  -14.9 °C 1041.2 in /  35255 hPa NW 1.9 mph /  3.1 km/h   74 % 0.0 in /  0 mm 237.0 W/m2 CLR
13:27 9.4 °F /  -12.6 °C 5.1 °F /  -14.9 °C 1041.2 in /  35255 hPa NNW 5.6 mph /  9 km/h 5.6 mph /  9 km/h 74 % 0.0 in /  0 mm 202.0 W/m2 CLR
13:32 9.4 °F /  -12.6 °C 5.1 °F /  -14.9 °C 1041.2 in /  35255 hPa North 1.9 mph /  3.1 km/h 1.9 mph /  3.1 km/h 74 % 0.0 in /  0 mm 232.0 W/m2 CLR
13:37 9.4 °F /  -12.6 °C 5.1 °F /  -14.9 °C 1041.2 in /  35255 hPa NNW 5.6 mph /  9 km/h 5.6 mph /  9 km/h 74 % 0.0 in /  0 mm 216.0 W/m2 CLR
13:42 9.4 °F /  -12.6 °C 5.1 °F /  -14.9 °C 1041.2 in /  35255 hPa Calm     74 % 0.0 in /  0 mm 239.0 W/m2 CLR
13:47 10.0 °F /  -12.2 °C 5.4 °F /  -14.8 °C 1041.2 in /  35255 hPa NW 5.6 mph /  9 km/h 5.6 mph /  9 km/h 73 % 0.0 in /  0 mm 306.0 W/m2 CLR
13:53 9.4 °F /  -12.6 °C 4.7 °F /  -15.2 °C 1040.9 in /  35244.9 hPa Calm   0.6 mph /  1 km/h 72 % 0.0 in /  0 mm 223.0 W/m2 CLR
13:58 10.0 °F /  -12.2 °C 5.4 °F /  -14.8 °C 1040.9 in /  35244.9 hPa Calm     73 % 0.0 in /  0 mm 431.0 W/m2 CLR
14:03 10.0 °F /  -12.2 °C 5.2 °F /  -14.9 °C 1040.9 in /  35244.9 hPa North 5.6 mph /  9 km/h   72 % 0.0 in /  0 mm 221.0 W/m2 CLR
14:08 10.0 °F /  -12.2 °C 5.2 °F /  -14.9 °C 1040.9 in /  35244.9 hPa ESE 5.6 mph /  9 km/h 5.6 mph /  9 km/h 72 % 0.0 in /  0 mm 260.0 W/m2 CLR
14:13 10.0 °F /  -12.2 °C 5.0 °F /  -15 °C 1040.9 in /  35244.9 hPa NNW 1.9 mph /  3.1 km/h 1.9 mph /  3.1 km/h 71 % 0.0 in /  0 mm 232.0 W/m2 CLR
14:18 10.0 °F /  -12.2 °C 5.2 °F /  -14.9 °C 1040.9 in /  35244.9 hPa NW 5.6 mph /  9 km/h 5.6 mph /  9 km/h 72 % 0.0 in /  0 mm 172.0 W/m2 CLR
14:23 10.0 °F /  -12.2 °C 5.4 °F /  -14.8 °C 1040.9 in /  35244.9 hPa NNW 3.7 mph /  6 km/h 3.7 mph /  6 km/h 73 % 0.0 in /  0 mm 160.0 W/m2 CLR
14:28 9.4 °F /  -12.6 °C 4.7 °F /  -15.2 °C 1040.9 in /  35244.9 hPa Calm     72 % 0.0 in /  0 mm 146.0 W/m2 CLR
14:33 9.4 °F /  -12.6 °C 4.7 °F /  -15.2 °C 1040.9 in /  35244.9 hPa NNW 3.7 mph /  6 km/h 3.7 mph /  6 km/h 72 % 0.0 in /  0 mm 149.0 W/m2 CLR
14:38 9.4 °F /  -12.6 °C 4.8 °F /  -15.1 °C 1040.9 in /  35244.9 hPa Calm     73 % 0.0 in /  0 mm 186.0 W/m2 CLR
14:43 10.0 °F /  -12.2 °C 5.2 °F /  -14.9 °C 1040.5 in /  35231.3 hPa Calm     72 % 0.0 in /  0 mm 339.0 W/m2 CLR
14:48 10.6 °F /  -11.9 °C 5.5 °F /  -14.7 °C 1040.5 in /  35231.3 hPa NNW 1.6 mph /  2.6 km/h   71 % 0.0 in /  0 mm 550.0 W/m2 CLR
14:53 11.1 °F /  -11.6 °C 6.3 °F /  -14.3 °C 1040.5 in /  35231.3 hPa NNW 5.6 mph /  9 km/h 5.6 mph /  9 km/h 72 % 0.0 in /  0 mm 522.0 W/m2 CLR
14:58 11.1 °F /  -11.6 °C 5.8 °F /  -14.6 °C 1040.5 in /  35231.3 hPa NW 5.6 mph /  9 km/h 5.6 mph /  9 km/h 70 % 0.0 in /  0 mm 415.0 W/m2 CLR
15:03 11.1 °F /  -11.6 °C 5.8 °F /  -14.6 °C 1040.5 in /  35231.3 hPa NNW 3.7 mph /  6 km/h 3.7 mph /  6 km/h 70 % 0.0 in /  0 mm 434.0 W/m2 CLR
15:08 11.7 °F /  -11.3 °C 5.9 °F /  -14.5 °C 1040.5 in /  35231.3 hPa Calm     68 % 0.0 in /  0 mm 483.0 W/m2 CLR
15:13 11.7 °F /  -11.3 °C 5.5 °F /  -14.7 °C 1040.5 in /  35231.3 hPa Calm     66 % 0.0 in /  0 mm 461.0 W/m2 CLR
15:18 11.7 °F /  -11.3 °C 5.7 °F /  -14.6 °C 1040.5 in /  35231.3 hPa NW 5.6 mph /  9 km/h 5.6 mph /  9 km/h 67 % 0.0 in /  0 mm 394.0 W/m2 CLR
15:23 11.7 °F /  -11.3 °C 5.7 °F /  -14.6 °C 1040.5 in /  35231.3 hPa Calm     67 % 0.0 in /  0 mm 383.0 W/m2 CLR
15:28 11.7 °F /  -11.3 °C 5.7 °F /  -14.6 °C 1040.5 in /  35231.3 hPa Calm     67 % 0.0 in /  0 mm 369.0 W/m2 CLR
15:33 11.7 °F /  -11.3 °C 5.1 °F /  -14.9 °C 1040.5 in /  35231.3 hPa Calm     64 % 0.0 in /  0 mm 357.0 W/m2 CLR
15:38 11.7 °F /  -11.3 °C 5.3 °F /  -14.8 °C 1040.5 in /  35231.3 hPa Calm     65 % 0.0 in /  0 mm 346.0 W/m2 CLR
15:43 12.2 °F /  -11 °C 5.8 °F /  -14.6 °C 1040.5 in /  35231.3 hPa Calm     65 % 0.0 in /  0 mm 343.0 W/m2 CLR
15:48 12.2 °F /  -11 °C 5.8 °F /  -14.6 °C 1040.5 in /  35231.3 hPa Calm     65 % 0.0 in /  0 mm 329.0 W/m2 CLR
15:53 12.2 °F /  -11 °C 6.1 °F /  -14.4 °C 1040.5 in /  35231.3 hPa Calm     66 % 0.0 in /  0 mm 309.0 W/m2 CLR
15:58 12.2 °F /  -11 °C 5.8 °F /  -14.6 °C 1040.2 in /  35221.2 hPa NNW 6.4 mph /  10.3 km/h 6.4 mph /  10.3 km/h 65 % 0.0 in /  0 mm 299.0 W/m2 CLR
16:03 12.2 °F /  -11 °C 6.1 °F /  -14.4 °C 1040.2 in /  35221.2 hPa NNW 3.7 mph /  6 km/h 3.7 mph /  6 km/h 66 % 0.0 in /  0 mm 288.0 W/m2 CLR
16:08 12.2 °F /  -11 °C 6.1 °F /  -14.4 °C 1040.2 in /  35221.2 hPa Calm     66 % 0.0 in /  0 mm 278.0 W/m2 CLR
16:13 12.2 °F /  -11 °C 6.1 °F /  -14.4 °C 1040.2 in /  35221.2 hPa NNW 3.7 mph /  6 km/h 3.7 mph /  6 km/h 66 % 0.0 in /  0 mm 265.0 W/m2 CLR
16:18 12.2 °F /  -11 °C 6.1 °F /  -14.4 °C 1040.2 in /  35221.2 hPa NW 3.7 mph /  6 km/h 3.7 mph /  6 km/h 66 % 0.0 in /  0 mm 260.0 W/m2 CLR
16:23 12.2 °F /  -11 °C 6.1 °F /  -14.4 °C 1040.2 in /  35221.2 hPa Calm     66 % 0.0 in /  0 mm 190.0 W/m2 CLR
16:28 11.7 °F /  -11.3 °C 5.5 °F /  -14.7 °C 1040.2 in /  35221.2 hPa ESE 9.3 mph /  15 km/h 9.3 mph /  15 km/h 66 % 0.0 in /  0 mm 151.0 W/m2 CLR
16:33 11.1 °F /  -11.6 °C 5.2 °F /  -14.9 °C 1040.2 in /  35221.2 hPa ESE 7.4 mph /  11.9 km/h 7.4 mph /  11.9 km/h 67 % 0.0 in /  0 mm 221.0 W/m2 CLR
16:38 11.1 °F /  -11.6 °C 5.4 °F /  -14.8 °C 1040.2 in /  35221.2 hPa ESE 9.3 mph /  15 km/h 9.3 mph /  15 km/h 68 % 0.0 in /  0 mm 214.0 W/m2 CLR
16:43 11.1 °F /  -11.6 °C 5.4 °F /  -14.8 °C 1040.2 in /  35221.2 hPa ESE 5.6 mph /  9 km/h 5.6 mph /  9 km/h 68 % 0.0 in /  0 mm 193.0 W/m2 CLR
16:48 10.6 °F /  -11.9 °C 4.9 °F /  -15.1 °C 1040.2 in /  35221.2 hPa ESE 11.1 mph /  17.9 km/h 11.1 mph /  17.9 km/h 68 % 0.0 in /  0 mm 169.0 W/m2 CLR
16:53 10.6 °F /  -11.9 °C 5.1 °F /  -14.9 °C 1040.2 in /  35221.2 hPa ESE 8.0 mph /  12.9 km/h 8.0 mph /  12.9 km/h 69 % 0.0 in /  0 mm 148.0 W/m2 CLR
16:58 10.6 °F /  -11.9 °C 5.1 °F /  -14.9 °C 1040.5 in /  35231.3 hPa ESE 9.3 mph /  15 km/h 9.3 mph /  15 km/h 69 % 0.0 in /  0 mm 134.0 W/m2 CLR
17:03 10.0 °F /  -12.2 °C 4.6 °F /  -15.2 °C 1040.5 in /  35231.3 hPa ESE 3.7 mph /  6 km/h 3.7 mph /  6 km/h 69 % 0.0 in /  0 mm 118.0 W/m2 CLR
17:08 10.0 °F /  -12.2 °C 4.8 °F /  -15.1 °C 1040.5 in /  35231.3 hPa North 5.6 mph /  9 km/h 5.6 mph /  9 km/h 70 % 0.0 in /  0 mm 104.0 W/m2 CLR
17:13 10.0 °F /  -12.2 °C 4.8 °F /  -15.1 °C 1040.5 in /  35231.3 hPa ESE 5.6 mph /  9 km/h 5.6 mph /  9 km/h 70 % 0.0 in /  0 mm 86.0 W/m2 CLR
17:18 9.4 °F /  -12.6 °C 4.2 °F /  -15.4 °C 1040.5 in /  35231.3 hPa ESE 3.7 mph /  6 km/h 3.7 mph /  6 km/h 70 % 0.0 in /  0 mm 67.0 W/m2 FEW
17:23 9.4 °F /  -12.6 °C 4.2 °F /  -15.4 °C 1040.5 in /  35231.3 hPa Calm     70 % 0.0 in /  0 mm 63.0 W/m2 SCT
17:28 9.4 °F /  -12.6 °C 4.4 °F /  -15.3 °C 1040.5 in /  35231.3 hPa Calm     71 % 0.0 in /  0 mm 49.0 W/m2 SCT
17:33 8.9 °F /  -12.8 °C 3.9 °F /  -15.6 °C 1040.9 in /  35244.9 hPa Calm     71 % 0.0 in /  0 mm 40.0 W/m2 BKN
17:38 8.9 °F /  -12.8 °C 3.7 °F /  -15.7 °C 1040.9 in /  35244.9 hPa Calm     70 % 0.0 in /  0 mm 30.0 W/m2 BKN
17:43 8.3 °F /  -13.2 °C 3.4 °F /  -15.9 °C 1040.9 in /  35244.9 hPa Calm     71 % 0.0 in /  0 mm 23.0 W/m2 BKN
17:48 8.3 °F /  -13.2 °C 3.2 °F /  -16 °C 1040.9 in /  35244.9 hPa Calm     70 % 0.0 in /  0 mm 19.0 W/m2 BKN
17:53 7.8 °F /  -13.4 °C 2.8 °F /  -16.2 °C 1040.9 in /  35244.9 hPa Calm     71 % 0.0 in /  0 mm 14.0 W/m2 BKN
17:58 7.8 °F /  -13.4 °C 3.1 °F /  -16.1 °C 1040.9 in /  35244.9 hPa Calm     72 % 0.0 in /  0 mm 9.0 W/m2 BKN
18:03 7.2 °F /  -13.8 °C 2.7 °F /  -16.3 °C 1040.9 in /  35244.9 hPa Calm     73 % 0.0 in /  0 mm 7.0 W/m2 BKN
18:08 6.7 °F /  -14.1 °C 2.3 °F /  -16.5 °C 1040.9 in /  35244.9 hPa Calm     74 % 0.0 in /  0 mm 5.0 W/m2 OVC
18:13 6.7 °F /  -14.1 °C 2.6 °F /  -16.3 °C 1040.9 in /  35244.9 hPa Calm     75 % 0.0 in /  0 mm 0.0 W/m2 OVC
18:18 6.1 °F /  -14.4 °C 2.2 °F /  -16.6 °C 1041.2 in /  35255 hPa Calm     76 % 0.0 in /  0 mm 0.0 W/m2 OVC
18:23 6.1 °F /  -14.4 °C 2.2 °F /  -16.6 °C 1041.2 in /  35255 hPa Calm     76 % 0.0 in /  0 mm 0.0 W/m2 CLR
18:28 5.6 °F /  -14.7 °C 1.8 °F /  -16.8 °C 1041.2 in /  35255 hPa Calm     77 % 0.0 in /  0 mm 0.0 W/m2 CLR
18:33 5.6 °F /  -14.7 °C 1.8 °F /  -16.8 °C 1041.2 in /  35255 hPa Calm     77 % 0.0 in /  0 mm 0.0 W/m2 CLR
18:38 5.6 °F /  -14.7 °C 2.0 °F /  -16.7 °C 1041.2 in /  35255 hPa Calm     78 % 0.0 in /  0 mm 0.0 W/m2 CLR
18:43 5.6 °F /  -14.7 °C 2.2 °F /  -16.6 °C 1041.2 in /  35255 hPa Calm     79 % 0.0 in /  0 mm 0.0 W/m2 CLR
18:48 5.6 °F /  -14.7 °C 2.4 °F /  -16.4 °C 1041.2 in /  35255 hPa Calm     80 % 0.0 in /  0 mm 0.0 W/m2 CLR
18:53 5.6 °F /  -14.7 °C 2.4 °F /  -16.4 °C 1041.2 in /  35255 hPa Calm     80 % 0.0 in /  0 mm 0.0 W/m2 CLR
18:58 5.6 °F /  -14.7 °C 2.6 °F /  -16.3 °C 1041.2 in /  35255 hPa Calm     81 % 0.0 in /  0 mm 0.0 W/m2 CLR
19:03 5.0 °F /  -15 °C 2.2 °F /  -16.6 °C 1041.5 in /  35265.2 hPa Calm     82 % 0.0 in /  0 mm 0.0 W/m2 CLR
19:08 5.0 °F /  -15 °C 2.3 °F /  -16.5 °C 1041.5 in /  35265.2 hPa Calm     83 % 0.0 in /  0 mm 0.0 W/m2 CLR
19:13 5.0 °F /  -15 °C 2.3 °F /  -16.5 °C 1041.5 in /  35265.2 hPa Calm     83 % 0.0 in /  0 mm 0.0 W/m2 CLR
19:18 5.0 °F /  -15 °C 2.5 °F /  -16.4 °C 1041.5 in /  35265.2 hPa Calm     84 % 0.0 in /  0 mm 0.0 W/m2 CLR
19:24 4.4 °F /  -15.3 °C 2.2 °F /  -16.6 °C 1041.5 in /  35265.2 hPa Calm     85 % 0.0 in /  0 mm 0.0 W/m2 CLR
19:29 4.4 °F /  -15.3 °C 2.2 °F /  -16.6 °C 1041.5 in /  35265.2 hPa Calm     85 % 0.0 in /  0 mm 0.0 W/m2 CLR
19:34 3.9 °F /  -15.6 °C 1.6 °F /  -16.9 °C 1041.5 in /  35265.2 hPa Calm     85 % 0.0 in /  0 mm 0.0 W/m2 CLR
19:39 3.9 °F /  -15.6 °C 1.8 °F /  -16.8 °C 1041.5 in /  35265.2 hPa Calm     86 % 0.0 in /  0 mm 0.0 W/m2 CLR
19:44 3.9 °F /  -15.6 °C 1.8 °F /  -16.8 °C 1041.5 in /  35265.2 hPa Calm     86 % 0.0 in /  0 mm 0.0 W/m2 CLR
19:49 3.3 °F /  -15.9 °C 1.2 °F /  -17.1 °C 1041.5 in /  35265.2 hPa Calm     86 % 0.0 in /  0 mm 0.0 W/m2 CLR
19:54 3.3 °F /  -15.9 °C 1.2 °F /  -17.1 °C 1041.5 in /  35265.2 hPa Calm     86 % 0.0 in /  0 mm 0.0 W/m2 CLR
19:59 3.3 °F /  -15.9 °C 1.4 °F /  -17 °C 1041.9 in /  35278.7 hPa Calm     87 % 0.0 in /  0 mm 0.0 W/m2 CLR
20:04 3.3 °F /  -15.9 °C 1.4 °F /  -17 °C 1041.5 in /  35265.2 hPa Calm     87 % 0.0 in /  0 mm 0.0 W/m2 CLR
20:09 2.8 °F /  -16.2 °C 1.0 °F /  -17.2 °C 1041.5 in /  35265.2 hPa Calm     88 % 0.0 in /  0 mm 0.0 W/m2 CLR
20:14 2.8 °F /  -16.2 °C 1.0 °F /  -17.2 °C 1041.5 in /  35265.2 hPa Calm     88 % 0.0 in /  0 mm 0.0 W/m2 CLR
20:19 2.8 °F /  -16.2 °C 1.0 °F /  -17.2 °C 1041.5 in /  35265.2 hPa Calm     88 % 0.0 in /  0 mm 0.0 W/m2 CLR
20:24 2.8 °F /  -16.2 °C 1.0 °F /  -17.2 °C 1041.9 in /  35278.7 hPa Calm     88 % 0.0 in /  0 mm 0.0 W/m2 CLR
20:29 2.8 °F /  -16.2 °C 1.2 °F /  -17.1 °C 1041.5 in /  35265.2 hPa Calm     89 % 0.0 in /  0 mm 0.0 W/m2 CLR
20:34 2.8 °F /  -16.2 °C 1.2 °F /  -17.1 °C 1041.5 in /  35265.2 hPa Calm     89 % 0.0 in /  0 mm 0.0 W/m2 CLR
20:39 2.8 °F /  -16.2 °C 1.2 °F /  -17.1 °C 1041.5 in /  35265.2 hPa Calm     89 % 0.0 in /  0 mm 0.0 W/m2 CLR
20:44 2.8 °F /  -16.2 °C 1.2 °F /  -17.1 °C 1041.5 in /  35265.2 hPa Calm     89 % 0.0 in /  0 mm 0.0 W/m2 CLR
20:49 2.8 °F /  -16.2 °C 1.2 °F /  -17.1 °C 1041.5 in /  35265.2 hPa Calm     89 % 0.0 in /  0 mm 0.0 W/m2 CLR
20:54 2.8 °F /  -16.2 °C 1.2 °F /  -17.1 °C 1041.5 in /  35265.2 hPa Calm     89 % 0.0 in /  0 mm 0.0 W/m2 CLR
20:59 2.8 °F /  -16.2 °C 1.2 °F /  -17.1 °C 1041.5 in /  35265.2 hPa Calm     89 % 0.0 in /  0 mm 0.0 W/m2 CLR
21:04 2.2 °F /  -16.6 °C 0.8 °F /  -17.3 °C 1041.9 in /  35278.7 hPa Calm     90 % 0.0 in /  0 mm 0.0 W/m2 CLR
21:09 2.2 °F /  -16.6 °C 0.8 °F /  -17.3 °C 1041.5 in /  35265.2 hPa Calm     90 % 0.0 in /  0 mm 0.0 W/m2 CLR
21:14 2.2 °F /  -16.6 °C 0.8 °F /  -17.3 °C 1041.9 in /  35278.7 hPa Calm     90 % 0.0 in /  0 mm 0.0 W/m2 CLR
21:19 2.2 °F /  -16.6 °C 0.8 °F /  -17.3 °C 1041.9 in /  35278.7 hPa Calm     90 % 0.0 in /  0 mm 0.0 W/m2 CLR
21:24 2.2 °F /  -16.6 °C 0.8 °F /  -17.3 °C 1041.9 in /  35278.7 hPa Calm     90 % 0.0 in /  0 mm 0.0 W/m2 CLR
21:29 2.2 °F /  -16.6 °C 0.8 °F /  -17.3 °C 1041.9 in /  35278.7 hPa Calm     90 % 0.0 in /  0 mm 0.0 W/m2 CLR
21:34 2.2 °F /  -16.6 °C 0.8 °F /  -17.3 °C 1041.9 in /  35278.7 hPa Calm     90 % 0.0 in /  0 mm 0.0 W/m2 CLR
21:39 2.2 °F /  -16.6 °C 0.8 °F /  -17.3 °C 1041.9 in /  35278.7 hPa Calm     90 % 0.0 in /  0 mm 0.0 W/m2 CLR
21:44 2.2 °F /  -16.6 °C 0.8 °F /  -17.3 °C 1041.9 in /  35278.7 hPa Calm     90 % 0.0 in /  0 mm 0.0 W/m2 CLR
21:49 2.2 °F /  -16.6 °C 0.8 °F /  -17.3 °C 1041.9 in /  35278.7 hPa Calm     90 % 0.0 in /  0 mm 0.0 W/m2 CLR
21:54 2.2 °F /  -16.6 °C 0.8 °F /  -17.3 °C 1041.9 in /  35278.7 hPa Calm     90 % 0.0 in /  0 mm 0.0 W/m2 CLR
21:59 1.7 °F /  -16.8 °C 0.2 °F /  -17.7 °C 1041.9 in /  35278.7 hPa Calm     90 % 0.0 in /  0 mm 0.0 W/m2 CLR
22:04 2.2 °F /  -16.6 °C 0.8 °F /  -17.3 °C 1041.9 in /  35278.7 hPa Calm     90 % 0.0 in /  0 mm 0.0 W/m2 CLR
22:09 1.7 °F /  -16.8 °C 0.2 °F /  -17.7 °C 1041.9 in /  35278.7 hPa Calm     90 % 0.0 in /  0 mm 0.0 W/m2 CLR
22:14 1.7 °F /  -16.8 °C 0.2 °F /  -17.7 °C 1041.9 in /  35278.7 hPa Calm     90 % 0.0 in /  0 mm 0.0 W/m2 CLR
22:19 1.7 °F /  -16.8 °C 0.2 °F /  -17.7 °C 1041.9 in /  35278.7 hPa Calm     90 % 0.0 in /  0 mm 0.0 W/m2 CLR
22:24 1.7 °F /  -16.8 °C 0.2 °F /  -17.7 °C 1041.9 in /  35278.7 hPa Calm     90 % 0.0 in /  0 mm 0.0 W/m2 CLR
22:29 1.7 °F /  -16.8 °C 0.3 °F /  -17.6 °C 1041.9 in /  35278.7 hPa Calm     91 % 0.0 in /  0 mm 0.0 W/m2 CLR
22:34 1.7 °F /  -16.8 °C 0.2 °F /  -17.7 °C 1041.9 in /  35278.7 hPa Calm     90 % 0.0 in /  0 mm 0.0 W/m2 CLR
22:39 1.7 °F /  -16.8 °C 0.2 °F /  -17.7 °C 1041.9 in /  35278.7 hPa Calm     90 % 0.0 in /  0 mm 0.0 W/m2 CLR
22:44 1.7 °F /  -16.8 °C 0.3 °F /  -17.6 °C 1041.9 in /  35278.7 hPa Calm     91 % 0.0 in /  0 mm 0.0 W/m2 CLR
22:49 1.1 °F /  -17.2 °C -0.2 °F /  -17.9 °C 1041.9 in /  35278.7 hPa Calm     91 % 0.0 in /  0 mm 0.0 W/m2 CLR
22:54 1.1 °F /  -17.2 °C -0.2 °F /  -17.9 °C 1041.9 in /  35278.7 hPa Calm     91 % 0.0 in /  0 mm 0.0 W/m2 CLR
22:59 1.7 °F /  -16.8 °C 0.3 °F /  -17.6 °C 1041.5 in /  35265.2 hPa Calm     91 % 0.0 in /  0 mm 0.0 W/m2 CLR
23:04 1.1 °F /  -17.2 °C -0.2 °F /  -17.9 °C 1041.5 in /  35265.2 hPa Calm     91 % 0.0 in /  0 mm 0.0 W/m2 CLR
23:09 1.1 °F /  -17.2 °C -0.2 °F /  -17.9 °C 1041.5 in /  35265.2 hPa Calm     91 % 0.0 in /  0 mm 0.0 W/m2 CLR
23:14 1.1 °F /  -17.2 °C -0.2 °F /  -17.9 °C 1041.5 in /  35265.2 hPa Calm     91 % 0.0 in /  0 mm 0.0 W/m2 CLR
23:19 1.1 °F /  -17.2 °C -0.2 °F /  -17.9 °C 1041.9 in /  35278.7 hPa Calm     91 % 0.0 in /  0 mm 0.0 W/m2 CLR
23:24 0.6 °F /  -17.4 °C -0.7 °F /  -18.2 °C 1041.9 in /  35278.7 hPa Calm     91 % 0.0 in /  0 mm 0.0 W/m2 CLR
23:29 0.6 °F /  -17.4 °C -0.7 °F /  -18.2 °C 1041.9 in /  35278.7 hPa Calm     91 % 0.0 in /  0 mm 0.0 W/m2 CLR
23:35 0.6 °F /  -17.4 °C -0.7 °F /  -18.2 °C 1041.9 in /  35278.7 hPa Calm     91 % 0.0 in /  0 mm 0.0 W/m2 CLR
23:40 0.6 °F /  -17.4 °C -0.7 °F /  -18.2 °C 1041.9 in /  35278.7 hPa Calm     91 % 0.0 in /  0 mm 0.0 W/m2 CLR
23:45 0.6 °F /  -17.4 °C -0.7 °F /  -18.2 °C 1041.9 in /  35278.7 hPa Calm     91 % 0.0 in /  0 mm 0.0 W/m2 CLR
23:50 0.6 °F /  -17.4 °C -0.6 °F /  -18.1 °C 1041.9 in /  35278.7 hPa Calm     92 % 0.0 in /  0 mm 0.0 W/m2 CLR
23:55 1.1 °F /  -17.2 °C -0.1 °F /  -17.8 °C 1041.9 in /  35278.7 hPa Calm     92 % 0.0 in /  0 mm 0.0 W/m2 CLR
Lo Temps de Massalio
Compliments of Weather Underground - 1.25 mb